createdAt,value
2019-02-11T00:04:45.897Z,6.85
2019-02-11T00:09:56.079Z,7.22
2019-02-11T00:14:58.614Z,6.77
2019-02-11T00:20:03.228Z,6.65
2019-02-11T00:25:13.941Z,5.22
2019-02-11T00:30:27.454Z,9.21
2019-02-11T00:35:30.313Z,7.40
2019-02-11T00:40:34.795Z,8.45
2019-02-11T00:45:36.427Z,9.00
2019-02-11T00:50:51.487Z,8.80
2019-02-11T00:55:45.703Z,8.73
2019-02-11T01:00:38.822Z,9.30
2019-02-11T01:05:53.278Z,7.66
2019-02-11T01:16:05.818Z,7.30
2019-02-11T01:21:22.323Z,9.02
2019-02-11T01:26:12.860Z,7.38
2019-02-11T01:36:19.266Z,7.91
2019-02-11T01:41:27.316Z,8.58
2019-02-11T01:46:27.469Z,7.05
2019-02-11T01:51:33.374Z,10.33
2019-02-11T01:56:35.741Z,7.96
2019-02-11T02:01:44.702Z,7.30
2019-02-11T02:06:34.535Z,6.61
2019-02-11T02:11:49.662Z,8.27
2019-02-11T02:16:46.229Z,7.72
2019-02-11T02:22:01.601Z,7.48
2019-02-11T02:26:55.813Z,7.71
2019-02-11T02:32:13.511Z,8.32
2019-02-11T02:37:12.107Z,10.26
2019-02-11T02:42:15.401Z,9.63
2019-02-11T02:47:19.350Z,10.68
2019-02-11T02:52:22.430Z,6.84
2019-02-11T02:57:23.542Z,10.05
2019-02-11T03:02:25.259Z,8.80
2019-02-11T03:07:25.539Z,12.00
2019-02-11T03:12:29.851Z,10.33
2019-02-11T03:17:30.259Z,8.46
2019-02-11T03:22:31.452Z,11.04
2019-02-11T03:27:32.406Z,8.99
2019-02-11T03:32:43.131Z,10.30
2019-02-11T03:37:35.366Z,9.92
2019-02-11T03:42:36.836Z,9.95
2019-02-11T03:47:39.606Z,8.41
2019-02-11T03:52:47.782Z,12.61
2019-02-11T03:57:50.979Z,11.08
2019-02-11T04:02:51.965Z,8.00
2019-02-11T04:08:02.287Z,7.76
2019-02-11T04:13:01.337Z,13.44
2019-02-11T04:18:03.898Z,10.65
2019-02-11T04:23:03.411Z,10.18
2019-02-11T04:28:13.129Z,12.25
2019-02-11T04:33:29.401Z,8.98
2019-02-11T04:38:29.079Z,12.63
2019-02-11T04:43:44.610Z,11.26
2019-02-11T04:48:48.150Z,11.92
2019-02-11T04:59:10.493Z,13.18
2019-02-11T05:04:09.101Z,11.02
2019-02-11T05:09:21.547Z,11.60
2019-02-11T05:14:09.656Z,12.12
2019-02-11T05:19:19.495Z,11.13
2019-02-11T05:24:31.248Z,16.86
2019-02-11T05:29:19.631Z,16.13
2019-02-11T05:34:28.743Z,14.12
2019-02-11T05:39:29.078Z,15.79
2019-02-11T05:44:38.350Z,16.08
2019-02-11T05:49:44.451Z,17.41
2019-02-11T05:54:48.065Z,19.30
2019-02-11T05:59:48.510Z,12.36
2019-02-11T06:04:55.245Z,10.16
2019-02-11T06:09:59.565Z,12.78
2019-02-11T06:15:11.264Z,11.82
2019-02-11T06:20:02.674Z,15.65
2019-02-11T06:25:07.025Z,14.32
2019-02-11T06:30:09.401Z,14.64
2019-02-11T06:35:22.734Z,12.76
2019-02-11T06:40:26.831Z,13.68
2019-02-11T06:45:30.587Z,13.98
2019-02-11T06:50:39.147Z,13.84
2019-02-11T06:55:41.915Z,13.86
2019-02-11T07:00:50.185Z,13.64
2019-02-11T07:05:52.086Z,12.00
2019-02-11T07:10:59.879Z,13.01
2019-02-11T07:16:07.057Z,10.39
2019-02-11T07:21:11.491Z,8.31
2019-02-11T07:26:20.878Z,9.80
2019-02-11T07:31:31.217Z,11.12
2019-02-11T07:36:19.181Z,9.85
2019-02-11T07:41:37.189Z,13.49
2019-02-11T07:46:34.571Z,8.22
2019-02-11T07:51:42.359Z,7.08
2019-02-11T07:56:46.844Z,13.98
2019-02-11T08:01:54.356Z,8.52
2019-02-11T08:06:57.148Z,10.24
2019-02-11T08:12:00.378Z,11.10
2019-02-11T08:16:59.951Z,11.42
2019-02-11T08:22:01.163Z,10.79
2019-02-11T08:27:01.457Z,10.27
2019-02-11T08:32:08.483Z,12.72
2019-02-11T08:37:16.016Z,11.31
2019-02-11T08:42:17.665Z,13.12
2019-02-11T08:47:19.797Z,15.12
2019-02-11T08:52:26.784Z,12.09
2019-02-11T08:57:36.728Z,10.77
2019-02-11T09:02:31.055Z,9.80
2019-02-11T09:07:35.250Z,13.54
2019-02-11T09:12:50.222Z,11.28
2019-02-11T09:17:44.500Z,13.46
2019-02-11T09:22:50.231Z,12.58
2019-02-11T09:27:48.190Z,12.40
2019-02-11T09:33:06.816Z,10.82
2019-02-11T09:38:05.310Z,13.89
2019-02-11T09:43:17.588Z,18.46
2019-02-11T09:48:23.855Z,14.07
2019-02-11T09:53:27.568Z,10.77
2019-02-11T09:58:29.476Z,11.47
2019-02-11T10:03:37.906Z,11.95
2019-02-11T10:08:39.444Z,11.94
2019-02-11T10:13:42.631Z,15.29
2019-02-11T10:18:43.943Z,13.96
2019-02-11T10:23:52.396Z,13.93
2019-02-11T10:28:51.583Z,13.72
2019-02-11T10:33:56.859Z,10.39
2019-02-11T10:38:55.888Z,11.74
2019-02-11T10:44:09.603Z,11.05
2019-02-11T10:49:10.095Z,10.35
2019-02-11T10:54:10.731Z,11.62
2019-02-11T10:59:11.457Z,12.22
2019-02-11T11:04:16.610Z,13.12
2019-02-11T11:09:17.607Z,10.16
2019-02-11T11:14:28.252Z,11.44
2019-02-11T11:19:29.485Z,8.87
2019-02-11T11:24:33.282Z,5.10
2019-02-11T11:29:35.616Z,4.59
2019-02-11T11:34:47.181Z,6.47
2019-02-11T11:39:39.134Z,3.89
2019-02-11T11:44:40.662Z,1.79
2019-02-11T11:49:44.029Z,2.72
2019-02-11T11:54:45.566Z,3.11
2019-02-11T12:04:55.336Z,2.60
2019-02-11T12:09:56.029Z,3.22
2019-02-11T12:14:58.824Z,3.06
2019-02-11T12:19:59.529Z,2.40
2019-02-11T12:25:02.403Z,2.54
2019-02-11T12:30:02.081Z,3.35
2019-02-11T12:35:34.319Z,2.86
2019-02-11T12:40:40.743Z,3.68
2019-02-11T12:45:42.115Z,2.71
2019-02-11T12:50:44.685Z,2.46
2019-02-11T12:55:49.875Z,2.52
2019-02-11T13:01:03.624Z,1.93
2019-02-11T13:05:59.108Z,2.25
2019-02-11T13:11:07.460Z,2.86
2019-02-11T13:16:10.678Z,4.31
2019-02-11T13:26:14.585Z,3.32
2019-02-11T13:31:22.345Z,4.39
2019-02-11T13:36:23.800Z,3.88
2019-02-11T13:41:18.303Z,3.45
2019-02-11T13:46:31.466Z,3.88
2019-02-11T13:51:23.572Z,4.47
2019-02-11T13:56:28.131Z,4.54
2019-02-11T14:01:44.517Z,6.84
2019-02-11T14:06:32.376Z,4.64
2019-02-11T14:11:42.970Z,3.35
2019-02-11T14:16:44.946Z,5.76
2019-02-11T14:21:53.673Z,3.99
2019-02-11T14:26:55.444Z,3.67
2019-02-11T14:32:00.173Z,3.38
2019-02-11T14:37:07.300Z,4.62
2019-02-11T14:42:14.376Z,4.52
2019-02-11T14:47:12.561Z,4.26
2019-02-11T14:52:18.731Z,3.48
2019-02-11T14:57:20.980Z,4.04
2019-02-11T15:02:24.323Z,4.86
2019-02-11T15:07:34.116Z,3.89
2019-02-11T15:12:25.686Z,5.22
2019-02-11T15:17:29.736Z,4.62
2019-02-11T15:22:32.250Z,4.57
2019-02-11T15:27:33.982Z,3.42
2019-02-11T15:32:43.027Z,4.73
2019-02-11T15:37:42.594Z,6.98
2019-02-11T15:42:56.446Z,4.07
2019-02-11T15:47:57.646Z,4.15
2019-02-11T15:53:14.836Z,2.96
2019-02-11T15:58:12.114Z,2.99
2019-02-11T16:03:31.660Z,2.11
2019-02-11T16:08:17.558Z,2.82
2019-02-11T16:13:16.436Z,2.71
2019-02-11T16:18:32.260Z,2.97
2019-02-11T16:23:39.865Z,3.98
2019-02-11T16:28:38.612Z,3.52
2019-02-11T16:33:46.284Z,2.42
2019-02-11T16:38:44.105Z,2.93
2019-02-11T16:43:57.125Z,2.20
2019-02-11T16:49:00.562Z,1.97
2019-02-11T16:54:11.019Z,3.76
2019-02-11T16:59:11.928Z,1.78
2019-02-11T17:04:18.246Z,2.68
2019-02-11T17:09:22.215Z,2.63
2019-02-11T17:14:31.909Z,2.38
2019-02-11T17:19:37.260Z,5.76
2019-02-11T17:24:53.948Z,10.15
2019-02-11T17:29:44.794Z,6.95
2019-02-11T17:34:49.077Z,4.91
2019-02-11T17:39:47.904Z,6.01
2019-02-11T17:44:56.699Z,15.55
2019-02-11T17:50:18.224Z,7.28
2019-02-11T17:55:20.951Z,3.16
2019-02-11T18:00:23.458Z,10.35
2019-02-11T18:05:28.834Z,5.13
2019-02-11T18:10:28.822Z,6.56
2019-02-11T18:15:35.327Z,2.95
2019-02-11T18:20:39.154Z,5.57
2019-02-11T18:25:55.494Z,8.04
2019-02-11T18:30:59.345Z,16.11
2019-02-11T18:35:45.962Z,6.53
2019-02-11T18:40:58.851Z,7.84
2019-02-11T18:46:00.390Z,9.30
2019-02-11T18:51:06.048Z,12.72
2019-02-11T19:06:11.672Z,5.12
2019-02-11T19:11:18.955Z,4.25
2019-02-11T19:16:23.806Z,3.97
2019-02-11T19:21:26.950Z,4.26
2019-02-11T19:31:28.840Z,5.70
2019-02-11T19:36:35.255Z,7.56
2019-02-11T19:41:37.609Z,6.50
2019-02-11T19:46:49.737Z,7.40
2019-02-11T19:51:48.585Z,7.65
2019-02-11T19:56:49.137Z,3.11
2019-02-11T20:02:05.871Z,3.61
2019-02-11T20:06:53.293Z,5.59
2019-02-11T20:12:05.914Z,6.38
2019-02-11T20:17:12.508Z,4.66
2019-02-11T20:22:16.481Z,4.42
2019-02-11T20:37:36.186Z,3.52
2019-02-11T20:52:47.708Z,4.38
2019-02-11T20:57:49.929Z,4.75
2019-02-11T21:02:57.087Z,5.20
2019-02-11T21:07:55.925Z,4.90
2019-02-11T21:13:17.364Z,4.72
2019-02-11T21:18:11.395Z,6.68
2019-02-11T21:23:11.677Z,6.59
2019-02-11T21:28:10.872Z,3.95
2019-02-11T21:33:29.438Z,4.25
2019-02-11T21:48:39.503Z,3.87
2019-02-11T21:58:48.452Z,4.97
2019-02-11T22:08:48.407Z,8.34
2019-02-11T22:13:54.120Z,7.68
2019-02-11T22:23:55.079Z,8.17
2019-02-11T22:34:03.349Z,2.42
2019-02-11T23:14:47.724Z,3.99
